Time;durP1;ratioP1;P1;durP2;ratioP2;P2;SDS_P1;SDS_P2;PMS_P1;PMS_P2;Temp;Humidity;BMP_temperature;BMP_pressure;BME280_temperature;BME280_humidity;BME280_pressure;Samples;Min_cycle;Max_cycle;Signal;HPM_P1;HPM_P2
2022/07/29 00:11:47;;;;;;;14.37;6.43;;;;;;;22.28;85.57;100469.03;31599639;28;20480;-79
2022/07/29 00:26:49;;;;;;;11.67;6.03;;;;;;;22.25;86.52;100455.44;31606837;28;20049;-79
2022/07/29 00:41:51;;;;;;;8.30;5.93;;;;;;;22.03;88.30;100465.06;31618176;28;20052;-79
2022/07/29 00:57:02;;;;;;;5.33;4.50;;;;;;;21.85;89.22;100462.59;31600825;28;20067;-78
2022/07/29 01:12:07;;;;;;;7.13;3.70;;;;;;;21.73;87.74;100452.69;31586552;28;20044;-80
2022/07/29 01:27:45;;;;;;;4.33;3.20;;;;;;;21.62;87.21;100452.56;31606414;28;20383;-78
2022/07/29 01:42:57;;;;;;;3.83;2.80;;;;;;;21.50;85.27;100473.00;31600936;28;20086;-81
2022/07/29 01:58:00;;;;;;;3.22;2.50;;;;;;;21.52;84.04;100482.31;31608815;28;20477;-79
2022/07/29 02:13:04;;;;;;;2.80;2.50;;;;;;;21.47;82.90;100482.28;31611784;28;20425;-79
2022/07/29 02:28:07;;;;;;;2.85;2.25;;;;;;;21.39;83.17;100490.97;31619285;28;20416;-79
2022/07/29 02:43:10;;;;;;;3.80;2.45;;;;;;;21.47;82.53;100507.13;31610063;28;20091;-78
2022/07/29 02:58:45;;;;;;;3.85;2.63;;;;;;;21.61;81.13;100498.00;31606636;28;20408;-80
2022/07/29 03:13:48;;;;;;;3.90;2.67;;;;;;;21.75;80.75;100497.13;31569828;28;20040;-78
2022/07/29 03:28:50;;;;;;;5.23;2.70;;;;;;;21.86;79.70;100505.56;31616277;28;20082;-80
2022/07/29 03:43:53;;;;;;;3.00;2.50;;;;;;;21.93;79.11;100501.63;31606380;28;20071;-78
2022/07/29 03:58:56;;;;;;;4.45;2.58;;;;;;;22.02;78.62;100513.28;31606870;28;20075;-79
2022/07/29 04:13:58;;;;;;;6.93;2.57;;;;;;;22.22;77.91;100522.78;31601044;28;20098;-79
2022/07/29 04:29:00;;;;;;;3.50;2.60;;;;;;;22.49;76.72;100513.97;31583235;28;20080;-78
2022/07/29 04:44:05;;;;;;;4.17;2.20;;;;;;;22.59;75.22;100520.84;31589281;28;20420;-79
2022/07/29 04:59:09;;;;;;;24.55;2.90;;;;;;;22.48;74.81;100520.00;31595689;28;20085;-80
2022/07/29 05:14:13;;;;;;;8.38;2.90;;;;;;;22.57;74.48;100509.50;31604926;28;20564;-78
2022/07/29 05:29:16;;;;;;;3.63;2.53;;;;;;;22.87;73.74;100523.84;31599529;28;20077;-79
2022/07/29 05:44:41;;;;;;;2.80;2.20;;;;;;;23.54;70.24;100523.47;31585951;28;20058;-79
2022/07/29 05:59:55;;;;;;;3.58;2.70;;;;;;;24.35;66.35;100528.97;31584081;28;20048;-82
2022/07/29 06:15:11;;;;;;;7.47;3.03;;;;;;;25.37;64.15;100533.91;31586899;28;20056;-78
2022/07/29 06:30:13;;;;;;;3.90;2.83;;;;;;;25.46;63.13;100528.09;31579080;28;20139;-80
2022/07/29 06:45:15;;;;;;;;;;;;;;;26.43;57.54;100510.38;31648651;28;20319;-85
2022/07/29 07:00:18;;;;;;;2.83;2.50;;;;;;;27.44;53.13;100513.63;31618846;28;20019;-85
2022/07/29 07:15:21;;;;;;;4.60;2.05;;;;;;;27.86;51.07;100516.94;31638494;28;20055;-92
2022/07/29 07:30:40;;;;;;;3.17;2.53;;;;;;;28.27;50.39;100515.84;31612500;28;20044;-84
2022/07/29 07:45:42;;;;;;;3.67;2.42;;;;;;;29.00;49.06;100515.34;31629745;28;20045;-85
2022/07/29 08:00:44;;;;;;;4.97;2.63;;;;;;;28.83;49.07;100510.81;31629871;28;20071;-89
2022/07/29 08:16:11;;;;;;;7.03;3.63;;;;;;;29.82;45.87;100516.97;31613712;28;20063;-94
2022/07/29 08:31:14;;;;;;;3.65;2.10;;;;;;;30.22;45.93;100508.47;31604868;28;20083;-84
2022/07/29 08:46:20;;;;;;;4.63;2.25;;;;;;;30.97;43.06;100510.34;31607913;28;20071;-86
2022/07/29 09:01:31;;;;;;;3.42;2.47;;;;;;;31.37;41.51;100505.94;31600823;28;20536;-89
2022/07/29 09:16:56;;;;;;;3.20;2.35;;;;;;;31.83;39.94;100494.91;31666394;28;20052;-93
2022/07/29 09:31:59;;;;;;;6.18;5.47;;;;;;;32.23;38.81;100491.59;31635413;28;20058;-90
2022/07/29 09:47:06;;;;;;;6.80;3.05;;;;;;;33.20;36.41;100489.25;31643499;28;20105;-90
2022/07/29 10:02:14;;;;;;;7.17;5.67;;;;;;;33.67;34.90;100490.56;31648721;28;20032;-88
2022/07/29 10:34:18;;;;;;;4.70;2.33;;;;;;;33.96;34.02;100466.38;31474938;28;20044;-94
2022/07/29 10:49:25;;;;;;;2.88;1.95;;;;;;;34.35;33.24;100461.22;31492107;28;20055;-91
2022/07/29 11:04:47;;;;;;;3.10;2.20;;;;;;;34.90;31.74;100462.97;31526077;28;20505;-90
2022/07/29 11:19:51;;;;;;;2.65;1.90;;;;;;;34.07;32.91;100448.25;31605887;28;20109;-91
2022/07/29 11:35:25;;;;;;;5.15;2.10;;;;;;;33.33;33.18;100449.63;31674568;28;20047;-89
2022/07/29 11:50:43;;;;;;;5.50;2.70;;;;;;;31.56;34.44;100438.31;31589867;28;20055;-89
2022/07/29 12:05:45;;;;;;;5.50;2.35;;;;;;;31.20;34.90;100438.34;31582289;28;21129;-91
2022/07/29 12:21:03;;;;;;;3.08;2.10;;;;;;;30.85;34.54;100429.41;31639991;28;20056;-93
2022/07/29 12:36:06;;;;;;;4.10;2.15;;;;;;;30.32;35.17;100417.81;31395506;23;20663;-75
2022/07/29 12:51:14;;;;;;;5.38;2.05;;;;;;;29.96;35.14;100420.50;31360527;28;20041;-76
2022/07/29 13:06:37;;;;;;;3.83;1.80;;;;;;;29.71;34.73;100414.47;31346470;28;20141;-76
2022/07/29 13:22:18;;;;;;;2.15;1.48;;;;;;;29.61;34.68;100418.28;31371908;28;20231;-86
2022/07/29 13:37:32;;;;;;;4.15;1.90;;;;;;;29.38;34.55;100412.41;31372789;28;20053;-81
2022/07/29 13:52:37;;;;;;;3.47;1.60;;;;;;;29.05;34.45;100402.72;31382469;28;20069;-76
2022/07/29 14:07:40;;;;;;;6.18;1.77;;;;;;;28.76;35.02;100410.88;31406957;28;20493;-88
2022/07/29 14:22:45;;;;;;;2.38;1.60;;;;;;;28.67;35.16;100391.75;31366677;28;20498;-86
2022/07/29 14:37:47;;;;;;;5.03;1.75;;;;;;;28.46;35.43;100388.84;31394900;28;20077;-75
2022/07/29 14:52:49;;;;;;;10.85;2.05;;;;;;;28.28;35.59;100386.16;31383125;28;20068;-77
2022/07/29 15:07:51;;;;;;;6.97;1.75;;;;;;;28.21;35.63;100386.78;31368141;28;20049;-76
2022/07/29 15:22:57;;;;;;;6.70;2.17;;;;;;;27.94;35.99;100383.88;31353398;28;20052;-88
2022/07/29 15:37:59;;;;;;;5.82;1.88;;;;;;;27.81;36.24;100386.66;31346536;28;20450;-75
2022/07/29 15:53:02;;;;;;;2.58;1.40;;;;;;;27.63;37.27;100393.03;31340516;28;21210;-75
2022/07/29 16:08:04;;;;;;;4.25;1.30;;;;;;;27.36;37.51;100409.59;31344499;28;20056;-76
2022/07/29 16:23:08;;;;;;;10.48;5.95;;;;;;;27.12;37.65;100416.00;31342465;28;20053;-76
2022/07/29 16:38:10;;;;;;;2.40;1.50;;;;;;;26.80;38.30;100421.41;31347898;28;20053;-78
2022/07/29 16:53:12;;;;;;;3.08;1.30;;;;;;;26.46;39.07;100428.59;31372533;28;20059;-77
2022/07/29 17:08:14;;;;;;;2.35;1.40;;;;;;;26.14;40.10;100433.91;31380154;28;20479;-77
2022/07/29 17:23:16;;;;;;;2.38;1.30;;;;;;;25.76;40.66;100444.78;31359418;28;20059;-77
2022/07/29 17:38:18;;;;;;;5.03;1.95;;;;;;;25.39;41.72;100461.16;31372246;28;20049;-79
2022/07/29 17:53:20;;;;;;;;;;;;;;;25.12;43.16;100471.13;31360068;28;20060;-76
2022/07/29 18:08:22;;;;;;;3.42;1.92;;;;;;;24.95;43.76;100492.63;31350351;28;20394;-76
2022/07/29 18:23:25;;;;;;;4.57;1.73;;;;;;;24.78;44.56;100498.97;31357182;28;20065;-78
2022/07/29 18:38:26;;;;;;;;;;;;;;;24.48;46.63;100503.53;31369707;28;20501;-75
2022/07/29 18:53:28;;;;;;;2.65;1.63;;;;;;;24.22;46.28;100514.81;31365569;28;19921;-77
2022/07/29 19:08:30;;;;;;;2.87;1.30;;;;;;;24.04;47.08;100518.09;31370321;28;20502;-76
2022/07/29 19:23:32;;;;;;;4.78;1.40;;;;;;;23.79;47.24;100511.47;31352892;28;20058;-77
2022/07/29 19:38:54;;;;;;;3.10;1.42;;;;;;;23.60;48.54;100510.41;31352557;28;20426;-77
2022/07/29 19:53:56;;;;;;;3.73;1.63;;;;;;;23.37;48.81;100510.28;31379445;28;20049;-77
2022/07/29 20:08:58;;;;;;;11.03;4.17;;;;;;;23.17;49.87;100491.03;31372354;28;20060;-77
2022/07/29 20:24:03;;;;;;;4.90;1.60;;;;;;;22.98;50.26;100493.47;31343955;28;20057;-76
2022/07/29 20:39:05;;;;;;;5.32;1.40;;;;;;;22.75;51.20;100506.38;31325125;28;20049;-78
2022/07/29 20:54:07;;;;;;;3.47;1.13;;;;;;;22.61;51.80;100507.28;31343521;28;20493;-77
2022/07/29 21:09:10;;;;;;;4.50;1.57;;;;;;;22.41;52.86;100504.63;31344854;28;20051;-77
2022/07/29 21:24:12;;;;;;;2.20;1.23;;;;;;;22.04;54.15;100513.56;31350526;28;20080;-76
2022/07/29 21:39:14;;;;;;;4.90;1.73;;;;;;;21.89;54.91;100507.34;31324777;28;20053;-76
2022/07/29 21:54:16;;;;;;;5.70;1.80;;;;;;;21.90;54.67;100497.81;31348463;28;20406;-80
2022/07/29 22:09:18;;;;;;;6.68;1.60;;;;;;;21.81;55.21;100499.97;31335119;28;20087;-78
2022/07/29 22:24:20;;;;;;;3.20;1.73;;;;;;;21.67;55.94;100507.13;31370691;28;20056;-77
2022/07/29 22:39:22;;;;;;;4.75;1.73;;;;;;;21.65;56.48;100513.13;31373588;28;20052;-76
2022/07/29 22:54:24;;;;;;;6.10;2.60;;;;;;;21.39;57.25;100496.50;31367109;28;20080;-77
2022/07/29 23:09:26;;;;;;;3.20;1.80;;;;;;;21.32;57.63;100488.59;31360292;28;20055;-77
2022/07/29 23:24:29;;;;;;;6.70;2.03;;;;;;;21.32;57.10;100490.59;31376838;28;20088;-75
2022/07/29 23:39:31;;;;;;;4.03;1.90;;;;;;;21.25;57.10;100491.03;31353718;28;20060;-77
2022/07/29 23:54:33;;;;;;;3.92;2.20;;;;;;;21.16;58.16;100494.66;31362231;28;20044;-76
